createdAt,value
2023-01-18T00:00:18.363Z,823.20
2023-01-18T00:01:18.239Z,823.19
2023-01-18T00:02:18.225Z,823.16
2023-01-18T00:03:18.215Z,823.18
2023-01-18T00:04:18.203Z,823.11
2023-01-18T00:05:18.238Z,823.14
2023-01-18T00:06:18.284Z,823.17
2023-01-18T00:07:18.173Z,823.14
2023-01-18T00:08:18.162Z,823.12
2023-01-18T00:09:18.153Z,823.15
2023-01-18T00:10:18.142Z,823.13
2023-01-18T00:11:18.148Z,823.17
2023-01-18T00:12:18.180Z,823.17
2023-01-18T00:13:18.125Z,823.14
2023-01-18T00:14:18.099Z,823.18
2023-01-18T00:15:18.090Z,823.13
2023-01-18T00:16:18.183Z,823.14
2023-01-18T00:17:18.087Z,823.21
2023-01-18T00:18:18.100Z,823.16
2023-01-18T00:19:18.061Z,823.16
2023-01-18T00:20:18.034Z,823.17
2023-01-18T00:21:18.054Z,823.23
2023-01-18T00:22:18.014Z,823.22
2023-01-18T00:23:18.008Z,823.20
2023-01-18T00:24:18.047Z,823.22
2023-01-18T00:25:17.990Z,823.24
2023-01-18T00:26:17.992Z,823.21
2023-01-18T00:27:17.979Z,823.18
2023-01-18T00:28:17.955Z,823.21
2023-01-18T00:29:17.946Z,823.17
2023-01-18T00:30:17.979Z,823.17
2023-01-18T00:31:17.989Z,823.21
2023-01-18T00:32:17.933Z,823.21
2023-01-18T00:33:17.918Z,823.23
2023-01-18T00:34:17.894Z,823.27
2023-01-18T00:35:17.885Z,823.29
2023-01-18T00:36:17.930Z,823.24
2023-01-18T00:37:17.862Z,823.29
2023-01-18T00:38:17.850Z,823.36
2023-01-18T00:39:17.853Z,823.31
2023-01-18T00:40:17.830Z,823.31
2023-01-18T00:41:17.818Z,823.36
2023-01-18T00:42:17.858Z,823.40
2023-01-18T00:43:17.804Z,823.39
2023-01-18T00:44:17.800Z,823.43
2023-01-18T00:45:17.779Z,823.39
2023-01-18T00:46:17.770Z,823.40
2023-01-18T00:47:17.759Z,823.45
2023-01-18T00:48:17.805Z,823.45
2023-01-18T00:49:17.742Z,823.51
2023-01-18T00:50:17.734Z,823.44
2023-01-18T00:51:17.714Z,823.47
2023-01-18T00:52:17.703Z,823.49
2023-01-18T00:53:17.698Z,823.51
2023-01-18T00:54:17.738Z,823.49
2023-01-18T00:55:17.682Z,823.51
2023-01-18T00:56:17.671Z,823.50
2023-01-18T00:57:17.655Z,823.53
2023-01-18T00:58:17.655Z,823.55
2023-01-18T00:59:17.634Z,823.60
2023-01-18T01:00:17.681Z,823.56
2023-01-18T01:01:17.837Z,823.60
2023-01-18T01:02:17.690Z,823.61
2023-01-18T01:03:17.591Z,823.61
2023-01-18T01:04:17.610Z,823.67
2023-01-18T01:05:17.576Z,823.68
2023-01-18T01:06:17.629Z,823.75
2023-01-18T01:07:17.551Z,823.76
2023-01-18T01:08:17.570Z,823.73
2023-01-18T01:09:17.527Z,823.75
2023-01-18T01:10:17.525Z,823.77
2023-01-18T01:11:17.509Z,823.83
2023-01-18T01:12:17.560Z,823.81
2023-01-18T01:13:17.503Z,823.86
2023-01-18T01:14:17.488Z,823.85
2023-01-18T01:15:17.468Z,823.87
2023-01-18T01:16:17.525Z,823.88
2023-01-18T01:17:17.445Z,823.89
2023-01-18T01:18:17.480Z,823.91
2023-01-18T01:19:17.435Z,823.92
2023-01-18T01:20:17.451Z,823.89
2023-01-18T01:21:17.428Z,823.91
2023-01-18T01:22:17.502Z,823.98
2023-01-18T01:23:17.382Z,823.93
2023-01-18T01:24:17.428Z,823.92
2023-01-18T01:25:17.362Z,823.93
2023-01-18T01:26:17.356Z,823.92
2023-01-18T01:27:17.343Z,823.94
2023-01-18T01:28:17.343Z,823.94
2023-01-18T01:29:17.319Z,823.92
2023-01-18T01:30:17.398Z,823.92
2023-01-18T01:31:17.300Z,823.94
2023-01-18T01:32:17.292Z,823.92
2023-01-18T01:33:17.279Z,823.97
2023-01-18T01:34:17.274Z,823.97
2023-01-18T01:35:17.256Z,824.02
2023-01-18T01:36:17.321Z,823.99
2023-01-18T01:37:17.239Z,823.95
2023-01-18T01:38:17.230Z,824.01
2023-01-18T01:39:17.219Z,824.04
2023-01-18T01:40:17.212Z,824.03
2023-01-18T01:41:17.228Z,824.03
2023-01-18T01:42:17.261Z,824.08
2023-01-18T01:43:17.176Z,824.07
2023-01-18T01:44:17.168Z,824.07
2023-01-18T01:45:17.162Z,824.06
2023-01-18T01:46:17.148Z,824.08
2023-01-18T01:47:17.145Z,824.12
2023-01-18T01:48:17.180Z,824.13
2023-01-18T01:49:17.111Z,824.13
2023-01-18T01:50:17.109Z,824.19
2023-01-18T01:51:17.095Z,824.13
2023-01-18T01:52:17.110Z,824.17
2023-01-18T01:53:17.089Z,824.12
2023-01-18T01:54:17.124Z,824.13
2023-01-18T01:55:17.053Z,824.16
2023-01-18T01:56:17.047Z,824.12
2023-01-18T01:57:17.032Z,824.18
2023-01-18T01:58:17.043Z,824.15
2023-01-18T01:59:17.033Z,824.18
2023-01-18T02:00:17.060Z,824.13
2023-01-18T02:01:17.078Z,824.18
2023-01-18T02:02:16.997Z,824.14
2023-01-18T02:03:16.968Z,824.18
2023-01-18T02:04:16.960Z,824.21
2023-01-18T02:05:16.968Z,824.20
2023-01-18T02:06:17.016Z,824.17
2023-01-18T02:07:16.926Z,824.19
2023-01-18T02:08:16.937Z,824.23
2023-01-18T02:09:16.906Z,824.21
2023-01-18T02:10:16.908Z,824.19
2023-01-18T02:11:16.887Z,824.20
2023-01-18T02:12:16.932Z,824.25
2023-01-18T02:13:16.863Z,824.20
2023-01-18T02:14:16.875Z,824.24
2023-01-18T02:15:19.136Z,824.19
2023-01-18T02:16:16.893Z,824.27
2023-01-18T02:17:16.827Z,824.23
2023-01-18T02:18:16.879Z,824.27
2023-01-18T02:19:16.814Z,824.27
2023-01-18T02:20:16.807Z,824.27
2023-01-18T02:21:16.794Z,824.36
2023-01-18T02:22:16.782Z,824.27
2023-01-18T02:23:16.760Z,824.29
2023-01-18T02:24:16.800Z,824.34
2023-01-18T02:25:16.752Z,824.33
2023-01-18T02:26:16.732Z,824.36
2023-01-18T02:27:16.718Z,824.34
2023-01-18T02:28:16.711Z,824.36
2023-01-18T02:29:16.708Z,824.36
2023-01-18T02:30:16.708Z,824.34
2023-01-18T02:31:16.682Z,824.42
2023-01-18T02:32:16.668Z,824.38
2023-01-18T02:33:16.659Z,824.48
2023-01-18T02:34:16.651Z,824.42
2023-01-18T02:35:16.646Z,824.48
2023-01-18T02:36:16.638Z,824.49
2023-01-18T02:37:16.623Z,824.52
2023-01-18T02:38:16.608Z,824.53
2023-01-18T02:39:16.604Z,824.53
2023-01-18T02:40:16.615Z,824.55
2023-01-18T02:41:16.587Z,824.58
2023-01-18T02:42:16.568Z,824.55
2023-01-18T02:43:16.552Z,824.57
2023-01-18T02:44:16.555Z,824.57
2023-01-18T02:45:16.532Z,824.60
2023-01-18T02:46:16.589Z,824.63
2023-01-18T02:47:16.527Z,824.65
2023-01-18T02:48:16.522Z,824.63
2023-01-18T02:49:16.490Z,824.65
2023-01-18T02:50:24.017Z,824.66
2023-01-18T02:51:23.992Z,824.69
2023-01-18T02:52:16.467Z,824.67
2023-01-18T02:53:16.453Z,824.63
2023-01-18T02:54:16.452Z,824.66
2023-01-18T02:55:16.430Z,824.63
2023-01-18T02:56:16.450Z,824.61
2023-01-18T02:57:16.412Z,824.62
2023-01-18T02:58:16.400Z,824.60
2023-01-18T02:59:16.402Z,824.59
2023-01-18T03:00:16.392Z,824.58
2023-01-18T03:01:16.604Z,824.57
2023-01-18T03:02:16.411Z,824.59
2023-01-18T03:03:16.345Z,824.59
2023-01-18T03:04:16.350Z,824.59
2023-01-18T03:05:16.327Z,824.62
2023-01-18T03:06:16.334Z,824.61
2023-01-18T03:07:16.305Z,824.62
2023-01-18T03:08:16.301Z,824.67
2023-01-18T03:09:16.294Z,824.65
2023-01-18T03:10:16.285Z,824.64
2023-01-18T03:11:16.262Z,824.71
2023-01-18T03:12:16.279Z,824.67
2023-01-18T03:13:16.244Z,824.65
2023-01-18T03:14:16.235Z,824.66
2023-01-18T03:15:16.328Z,824.66
2023-01-18T03:16:16.227Z,824.64
2023-01-18T03:17:16.202Z,824.66
2023-01-18T03:18:16.196Z,824.65
2023-01-18T03:19:16.185Z,824.64
2023-01-18T03:20:16.175Z,824.62
2023-01-18T03:21:16.174Z,824.67
2023-01-18T03:22:16.164Z,824.65
2023-01-18T03:23:16.141Z,824.69
2023-01-18T03:24:16.127Z,824.63
2023-01-18T03:25:16.119Z,824.64
2023-01-18T03:26:16.111Z,824.64
2023-01-18T03:27:16.110Z,824.66
2023-01-18T03:28:16.147Z,824.67
2023-01-18T03:29:16.086Z,824.62
2023-01-18T03:30:16.081Z,824.63
2023-01-18T03:31:16.143Z,824.64
2023-01-18T03:32:16.056Z,824.65
2023-01-18T03:33:16.041Z,824.64
2023-01-18T03:34:16.036Z,824.68
2023-01-18T03:35:16.018Z,824.70
2023-01-18T03:36:16.007Z,824.71
2023-01-18T03:37:16.000Z,824.69
2023-01-18T03:38:15.994Z,824.70
2023-01-18T03:39:15.980Z,824.66
2023-01-18T03:40:15.969Z,824.71
2023-01-18T03:41:15.953Z,824.69
2023-01-18T03:42:15.946Z,824.67
2023-01-18T03:43:15.948Z,824.66
2023-01-18T03:44:15.956Z,824.60
2023-01-18T03:45:15.914Z,824.67
2023-01-18T03:46:15.947Z,824.63
2023-01-18T03:47:15.903Z,824.66
2023-01-18T03:48:15.887Z,824.65
2023-01-18T03:49:15.882Z,824.63
2023-01-18T03:50:15.859Z,824.69
2023-01-18T03:51:15.869Z,824.69
2023-01-18T03:52:15.847Z,824.71
2023-01-18T03:53:15.830Z,824.73
2023-01-18T03:54:15.820Z,824.76
2023-01-18T03:55:15.808Z,824.73
2023-01-18T03:56:16.011Z,824.77
2023-01-18T03:57:15.805Z,824.74
2023-01-18T03:58:15.793Z,824.73
2023-01-18T03:59:15.772Z,824.78
2023-01-18T04:00:15.772Z,824.81
2023-01-18T04:01:15.959Z,824.82
2023-01-18T04:02:15.732Z,824.85
2023-01-18T04:03:15.801Z,824.84
2023-01-18T04:04:15.739Z,824.93
2023-01-18T04:05:15.781Z,824.89
2023-01-18T04:06:15.692Z,824.92
2023-01-18T04:07:15.688Z,824.90
2023-01-18T04:08:15.669Z,824.93
2023-01-18T04:09:15.663Z,824.93
2023-01-18T04:10:15.665Z,824.94
2023-01-18T04:11:15.655Z,824.97
2023-01-18T04:12:15.636Z,824.97
2023-01-18T04:13:15.624Z,824.95
2023-01-18T04:14:15.610Z,825.00
2023-01-18T04:15:15.605Z,825.04
2023-01-18T04:16:15.713Z,825.06
2023-01-18T04:17:15.598Z,825.04
2023-01-18T04:18:15.573Z,825.06
2023-01-18T04:19:15.564Z,825.07
2023-01-18T04:20:15.546Z,825.08
2023-01-18T04:21:15.560Z,825.10
2023-01-18T04:22:15.554Z,825.11
2023-01-18T04:23:15.519Z,825.09
2023-01-18T04:24:15.516Z,825.14
2023-01-18T04:25:15.529Z,825.14
2023-01-18T04:26:15.485Z,825.12
2023-01-18T04:27:15.502Z,825.13
2023-01-18T04:28:15.477Z,825.13
2023-01-18T04:29:15.461Z,825.16
2023-01-18T04:30:15.461Z,825.13
2023-01-18T04:31:15.471Z,825.16
2023-01-18T04:32:15.444Z,825.18
2023-01-18T04:33:15.535Z,825.14
2023-01-18T04:34:15.412Z,825.18
2023-01-18T04:35:15.401Z,825.18
2023-01-18T04:36:15.388Z,825.16
2023-01-18T04:37:15.373Z,825.13
2023-01-18T04:38:15.364Z,825.17
2023-01-18T04:39:15.377Z,825.14
2023-01-18T04:40:15.348Z,825.18
2023-01-18T04:41:15.333Z,825.17
2023-01-18T04:42:15.318Z,825.16
2023-01-18T04:43:15.412Z,825.16
2023-01-18T04:44:15.298Z,825.18
2023-01-18T04:45:15.296Z,825.19
2023-01-18T04:46:15.384Z,825.11
2023-01-18T04:47:15.276Z,825.14
2023-01-18T04:48:15.301Z,825.14
2023-01-18T04:49:15.371Z,825.17
2023-01-18T04:50:15.234Z,825.15
2023-01-18T04:51:15.231Z,825.16
2023-01-18T04:52:15.231Z,825.19
2023-01-18T04:53:15.205Z,825.19
2023-01-18T04:54:15.202Z,825.20
2023-01-18T04:55:15.213Z,825.20
2023-01-18T04:56:15.178Z,825.22
2023-01-18T04:57:15.168Z,825.22
2023-01-18T04:58:15.174Z,825.27
2023-01-18T04:59:15.155Z,825.28
2023-01-18T05:00:15.137Z,825.26
2023-01-18T05:01:15.294Z,825.29
2023-01-18T05:02:15.361Z,825.28
2023-01-18T05:03:15.102Z,825.27
2023-01-18T05:04:15.117Z,825.29
2023-01-18T05:05:15.106Z,825.31
2023-01-18T05:06:15.083Z,825.28
2023-01-18T05:07:15.062Z,825.33
2023-01-18T05:08:15.050Z,825.36
2023-01-18T05:09:15.040Z,825.33
2023-01-18T05:10:15.054Z,825.36
2023-01-18T05:11:15.026Z,825.37
2023-01-18T05:12:15.029Z,825.38
2023-01-18T05:13:14.999Z,825.40
2023-01-18T05:14:14.989Z,825.38
2023-01-18T05:15:14.979Z,825.36
2023-01-18T05:16:15.024Z,825.42
2023-01-18T05:17:14.960Z,825.42
2023-01-18T05:18:14.961Z,825.43
2023-01-18T05:19:14.936Z,825.43
2023-01-18T05:20:14.945Z,825.42
2023-01-18T05:21:14.917Z,825.49
2023-01-18T05:22:14.921Z,825.41
2023-01-18T05:23:14.909Z,825.49
2023-01-18T05:24:14.883Z,825.49
2023-01-18T05:25:14.884Z,825.48
2023-01-18T05:26:14.875Z,825.45
2023-01-18T05:27:14.855Z,825.48
2023-01-18T05:28:14.856Z,825.50
2023-01-18T05:29:14.848Z,825.48
2023-01-18T05:30:14.818Z,825.45
2023-01-18T05:31:14.922Z,825.44
2023-01-18T05:32:14.815Z,825.52
2023-01-18T05:33:14.794Z,825.48
2023-01-18T05:34:14.799Z,825.49
2023-01-18T05:35:14.870Z,825.53
2023-01-18T05:36:14.774Z,825.48
2023-01-18T05:37:14.770Z,825.52
2023-01-18T05:38:14.734Z,825.54
2023-01-18T05:39:14.745Z,825.54
2023-01-18T05:40:14.734Z,825.47
2023-01-18T05:41:14.723Z,825.50
2023-01-18T05:42:14.697Z,825.50
2023-01-18T05:43:14.686Z,825.52
2023-01-18T05:44:14.685Z,825.53
2023-01-18T05:45:14.666Z,825.52
2023-01-18T05:46:14.688Z,825.52
2023-01-18T05:47:14.658Z,825.58
2023-01-18T05:48:14.634Z,825.55
2023-01-18T05:49:14.620Z,825.57
2023-01-18T05:50:14.608Z,825.58
2023-01-18T05:51:14.611Z,825.57
2023-01-18T05:52:14.612Z,825.59
2023-01-18T05:53:14.587Z,825.61
2023-01-18T05:54:14.572Z,825.63
2023-01-18T05:55:14.557Z,825.62
2023-01-18T05:56:14.544Z,825.66
2023-01-18T05:57:14.548Z,825.67
2023-01-18T05:58:14.548Z,825.61
2023-01-18T05:59:14.532Z,825.67
2023-01-18T06:00:14.512Z,825.63
2023-01-18T06:01:14.568Z,825.60
2023-01-18T06:02:14.516Z,825.59
2023-01-18T06:03:14.469Z,825.60
2023-01-18T06:04:14.530Z,825.67
2023-01-18T06:05:14.455Z,825.64
2023-01-18T06:06:14.436Z,825.61
2023-01-18T06:07:14.427Z,825.69
2023-01-18T06:08:14.439Z,825.68
2023-01-18T06:09:14.420Z,825.67
2023-01-18T06:10:14.403Z,825.70
2023-01-18T06:11:14.388Z,825.73
2023-01-18T06:12:14.373Z,825.72
2023-01-18T06:13:14.384Z,825.70
2023-01-18T06:14:14.353Z,825.74
2023-01-18T06:15:14.360Z,825.73
2023-01-18T06:16:14.355Z,825.75
2023-01-18T06:17:14.339Z,825.77
2023-01-18T06:18:14.309Z,825.79
2023-01-18T06:19:14.322Z,825.77
2023-01-18T06:20:14.396Z,825.79
2023-01-18T06:21:14.301Z,825.82
2023-01-18T06:22:14.263Z,825.82
2023-01-18T06:23:14.265Z,825.85
2023-01-18T06:24:14.275Z,825.91
2023-01-18T06:25:14.260Z,825.87
2023-01-18T06:26:14.232Z,825.92
2023-01-18T06:27:14.227Z,825.94
2023-01-18T06:28:14.203Z,825.97
2023-01-18T06:29:14.194Z,826.00
2023-01-18T06:30:14.290Z,825.97
2023-01-18T06:31:14.171Z,826.02
2023-01-18T06:32:14.156Z,826.06
2023-01-18T06:33:14.161Z,826.10
2023-01-18T06:34:14.136Z,826.12
2023-01-18T06:35:14.128Z,826.12
2023-01-18T06:36:14.127Z,826.15
2023-01-18T06:37:14.111Z,826.18
2023-01-18T06:38:14.137Z,826.17
2023-01-18T06:39:14.111Z,826.27
2023-01-18T06:40:14.124Z,826.25
2023-01-18T06:41:14.086Z,826.26
2023-01-18T06:42:14.062Z,826.28
2023-01-18T06:43:14.427Z,826.33
2023-01-18T06:44:14.028Z,826.33
2023-01-18T06:45:14.031Z,826.35
2023-01-18T06:46:14.063Z,826.35
2023-01-18T06:47:14.011Z,826.43
2023-01-18T06:48:13.990Z,826.38
2023-01-18T06:49:13.983Z,826.40
2023-01-18T06:50:13.978Z,826.42
2023-01-18T06:51:13.997Z,826.41
2023-01-18T06:52:13.954Z,826.41
2023-01-18T06:53:13.962Z,826.45
2023-01-18T06:54:13.923Z,826.43
2023-01-18T06:55:13.915Z,826.44
2023-01-18T06:56:13.919Z,826.44
2023-01-18T06:57:13.911Z,826.47
2023-01-18T06:58:13.898Z,826.51
2023-01-18T06:59:13.873Z,826.50
2023-01-18T07:00:13.868Z,826.55
2023-01-18T07:01:13.999Z,826.55
2023-01-18T07:02:13.919Z,826.56
2023-01-18T07:03:13.853Z,826.61
2023-01-18T07:04:13.899Z,826.64
2023-01-18T07:05:13.817Z,826.61
2023-01-18T07:06:13.808Z,826.66
2023-01-18T07:07:13.793Z,826.69
2023-01-18T07:08:13.783Z,826.73
2023-01-18T07:09:13.785Z,826.76
2023-01-18T07:10:16.265Z,826.79
2023-01-18T07:11:13.749Z,826.77
2023-01-18T07:12:13.795Z,826.79
2023-01-18T07:13:13.726Z,826.76
2023-01-18T07:14:13.719Z,826.80
2023-01-18T07:15:21.533Z,826.81
2023-01-18T07:16:14.704Z,826.82
2023-01-18T07:17:13.689Z,826.85
2023-01-18T07:18:13.693Z,826.88
2023-01-18T07:19:13.664Z,826.88
2023-01-18T07:20:13.651Z,826.92
2023-01-18T07:21:15.213Z,826.91
2023-01-18T07:22:13.631Z,826.88
2023-01-18T07:23:13.623Z,826.93
2023-01-18T07:24:13.624Z,826.95
2023-01-18T07:25:13.821Z,826.94
2023-01-18T07:26:13.590Z,827.01
2023-01-18T07:27:13.619Z,827.00
2023-01-18T07:28:13.599Z,827.01
2023-01-18T07:29:13.570Z,827.04
2023-01-18T07:30:13.545Z,827.06
2023-01-18T07:31:13.541Z,827.07
2023-01-18T07:32:13.527Z,827.05
2023-01-18T07:33:13.545Z,827.06
2023-01-18T07:34:13.515Z,827.03
2023-01-18T07:35:13.499Z,827.11
2023-01-18T07:36:13.494Z,827.09
2023-01-18T07:37:13.477Z,827.08
2023-01-18T07:38:13.469Z,827.12
2023-01-18T07:39:13.484Z,827.15
2023-01-18T07:40:13.449Z,827.12
2023-01-18T07:41:13.435Z,827.17
2023-01-18T07:42:13.428Z,827.17
2023-01-18T07:43:13.416Z,827.18
2023-01-18T07:44:13.426Z,827.22
2023-01-18T07:45:13.423Z,827.20
2023-01-18T07:46:13.406Z,827.27
2023-01-18T07:47:13.372Z,827.27
2023-01-18T07:48:13.368Z,827.25
2023-01-18T07:49:13.370Z,827.31
2023-01-18T07:50:13.345Z,827.35
2023-01-18T07:51:13.342Z,827.37
2023-01-18T07:52:13.344Z,827.36
2023-01-18T07:53:13.319Z,827.40
2023-01-18T07:54:13.323Z,827.44
2023-01-18T07:55:13.287Z,827.45
2023-01-18T07:56:13.283Z,827.45
2023-01-18T07:57:13.291Z,827.46
2023-01-18T07:58:13.363Z,827.44
2023-01-18T07:59:13.257Z,827.46
2023-01-18T08:00:13.273Z,827.49
2023-01-18T08:01:13.366Z,827.47
2023-01-18T08:02:13.249Z,827.51
2023-01-18T08:03:13.231Z,827.53
2023-01-18T08:04:13.207Z,827.51
2023-01-18T08:05:13.197Z,827.45
2023-01-18T08:06:13.179Z,827.49
2023-01-18T08:07:13.168Z,827.50
2023-01-18T08:08:13.176Z,827.48
2023-01-18T08:09:13.161Z,827.49
2023-01-18T08:10:13.148Z,827.49
2023-01-18T08:11:13.130Z,827.48
2023-01-18T08:12:13.119Z,827.52
2023-01-18T08:13:13.103Z,827.47
2023-01-18T08:14:13.115Z,827.50
2023-01-18T08:15:13.096Z,827.50
2023-01-18T08:16:13.274Z,827.55
2023-01-18T08:17:13.080Z,827.51
2023-01-18T08:18:13.058Z,827.54
2023-01-18T08:19:13.044Z,827.57
2023-01-18T08:20:13.045Z,827.59
2023-01-18T08:21:13.030Z,827.56
2023-01-18T08:22:13.024Z,827.56
2023-01-18T08:23:13.006Z,827.59
2023-01-18T08:24:13.015Z,827.64
2023-01-18T08:25:12.988Z,827.62
2023-01-18T08:26:13.005Z,827.59
2023-01-18T08:27:12.969Z,827.61
2023-01-18T08:28:12.952Z,827.64
2023-01-18T08:29:12.940Z,827.70
2023-01-18T08:30:12.965Z,827.68
2023-01-18T08:31:13.027Z,827.70
2023-01-18T08:32:12.944Z,827.69
2023-01-18T08:33:12.901Z,827.67
2023-01-18T08:34:12.893Z,827.74
2023-01-18T08:35:12.878Z,827.72
2023-01-18T08:36:12.882Z,827.75
2023-01-18T08:37:12.872Z,827.79
2023-01-18T08:38:12.858Z,827.82
2023-01-18T08:39:12.837Z,827.86
2023-01-18T08:40:13.404Z,827.84
2023-01-18T08:41:12.815Z,827.85
2023-01-18T08:42:12.822Z,827.92
2023-01-18T08:43:12.796Z,827.90
2023-01-18T08:44:12.810Z,827.96
2023-01-18T08:45:12.775Z,827.90
2023-01-18T08:46:12.794Z,827.96
2023-01-18T08:47:12.753Z,827.94
2023-01-18T08:48:12.789Z,827.97
2023-01-18T08:49:12.733Z,828.03
2023-01-18T08:50:12.751Z,828.00
2023-01-18T08:51:12.717Z,828.05
2023-01-18T08:52:12.704Z,828.10
2023-01-18T08:53:12.689Z,828.13
2023-01-18T08:54:12.683Z,828.11
2023-01-18T08:55:12.666Z,828.14
2023-01-18T08:56:12.689Z,828.12
2023-01-18T08:57:12.647Z,828.20
2023-01-18T08:58:12.644Z,828.22
2023-01-18T08:59:12.695Z,828.18
2023-01-18T09:00:12.641Z,828.25
2023-01-18T09:01:12.708Z,828.17
2023-01-18T09:02:12.671Z,828.21
2023-01-18T09:03:12.675Z,828.21
2023-01-18T09:04:12.674Z,828.19
2023-01-18T09:05:12.563Z,828.23
2023-01-18T09:06:13.185Z,828.23
2023-01-18T09:07:12.549Z,828.28
2023-01-18T09:08:12.569Z,828.25
2023-01-18T09:09:12.518Z,828.26
2023-01-18T09:10:12.516Z,828.28
2023-01-18T09:11:12.494Z,828.33
2023-01-18T09:12:12.503Z,828.33
2023-01-18T09:13:12.492Z,828.32
2023-01-18T09:14:12.481Z,828.38
2023-01-18T09:15:12.459Z,828.37
2023-01-18T09:16:12.529Z,828.39
2023-01-18T09:17:12.431Z,828.46
2023-01-18T09:18:12.434Z,828.43
2023-01-18T09:19:12.417Z,828.51
2023-01-18T09:20:12.474Z,828.51
2023-01-18T09:21:12.389Z,828.53
2023-01-18T09:22:12.392Z,828.57
2023-01-18T09:23:12.366Z,828.54
2023-01-18T09:24:12.371Z,828.58
2023-01-18T09:25:12.344Z,828.61
2023-01-18T09:26:12.355Z,828.60
2023-01-18T09:27:12.324Z,828.64
2023-01-18T09:28:12.328Z,828.69
2023-01-18T09:29:12.313Z,828.71
2023-01-18T09:30:19.814Z,828.75
2023-01-18T09:31:19.867Z,828.78
2023-01-18T09:32:19.801Z,828.79
2023-01-18T09:33:19.805Z,828.79
2023-01-18T09:34:20.304Z,828.78
2023-01-18T09:35:19.807Z,828.82
2023-01-18T09:36:12.243Z,828.81
2023-01-18T09:37:19.745Z,828.83
2023-01-18T09:38:19.741Z,828.84
2023-01-18T09:39:19.841Z,828.87
2023-01-18T09:40:19.713Z,828.86
2023-01-18T09:41:14.104Z,828.89
2023-01-18T09:42:12.170Z,828.88
2023-01-18T09:43:12.156Z,828.88
2023-01-18T09:44:12.151Z,828.90
2023-01-18T09:45:12.156Z,828.92
2023-01-18T09:46:12.148Z,828.96
2023-01-18T09:47:12.115Z,828.95
2023-01-18T09:48:12.121Z,828.89
2023-01-18T09:49:12.096Z,828.93
2023-01-18T09:50:12.097Z,828.88
2023-01-18T09:51:12.099Z,828.91
2023-01-18T09:52:12.101Z,828.90
2023-01-18T09:53:12.055Z,828.89
2023-01-18T09:54:12.055Z,828.90
2023-01-18T09:55:12.133Z,828.87
2023-01-18T09:56:12.044Z,828.92
2023-01-18T09:57:12.008Z,828.87
2023-01-18T09:58:12.000Z,828.94
2023-01-18T09:59:11.989Z,828.92
2023-01-18T10:00:11.996Z,828.90
2023-01-18T10:01:12.148Z,828.91
2023-01-18T10:02:12.094Z,828.88
2023-01-18T10:03:11.962Z,828.88
2023-01-18T10:04:11.949Z,828.84
2023-01-18T10:05:11.955Z,828.84
2023-01-18T10:06:11.944Z,828.81
2023-01-18T10:07:11.939Z,828.84
2023-01-18T10:08:11.900Z,828.83
2023-01-18T10:09:11.882Z,828.83
2023-01-18T10:10:11.878Z,828.86
2023-01-18T10:11:11.869Z,828.80
2023-01-18T10:12:11.861Z,828.86
2023-01-18T10:13:11.844Z,828.88
2023-01-18T10:14:11.831Z,828.86
2023-01-18T10:15:11.860Z,828.88
2023-01-18T10:16:11.846Z,828.93
2023-01-18T10:17:11.798Z,828.91
2023-01-18T10:18:11.818Z,828.84
2023-01-18T10:19:11.775Z,828.90
2023-01-18T10:20:11.769Z,828.87
2023-01-18T10:21:11.753Z,828.92
2023-01-18T10:22:11.757Z,828.89
2023-01-18T10:23:11.796Z,828.91
2023-01-18T10:24:11.724Z,828.92
2023-01-18T10:25:11.711Z,828.92
2023-01-18T10:26:11.704Z,828.91
2023-01-18T10:27:11.704Z,828.91
2023-01-18T10:28:11.684Z,828.96
2023-01-18T10:29:11.707Z,828.95
2023-01-18T10:30:11.667Z,828.95
2023-01-18T10:31:11.689Z,828.99
2023-01-18T10:32:11.640Z,828.96
2023-01-18T10:33:11.635Z,829.00
2023-01-18T10:34:11.622Z,829.02
2023-01-18T10:35:11.681Z,829.01
2023-01-18T10:36:11.895Z,829.02
2023-01-18T10:37:11.582Z,829.00
2023-01-18T10:38:11.578Z,829.07
2023-01-18T10:39:11.596Z,828.98
2023-01-18T10:40:11.568Z,829.06
2023-01-18T10:41:11.576Z,829.01
2023-01-18T10:42:11.530Z,829.06
2023-01-18T10:43:11.520Z,829.01
2023-01-18T10:44:11.521Z,829.05
2023-01-18T10:45:11.500Z,829.01
2023-01-18T10:46:11.578Z,829.01
2023-01-18T10:47:11.535Z,828.96
2023-01-18T10:48:11.468Z,828.97
2023-01-18T10:49:11.458Z,829.01
2023-01-18T10:50:11.446Z,829.01
2023-01-18T10:51:11.437Z,829.03
2023-01-18T10:52:11.442Z,828.97
2023-01-18T10:53:11.462Z,829.06
2023-01-18T10:54:11.408Z,828.99
2023-01-18T10:55:11.415Z,829.01
2023-01-18T10:56:11.388Z,829.05
2023-01-18T10:57:11.371Z,829.06
2023-01-18T10:58:11.377Z,829.07
2023-01-18T10:59:11.373Z,829.02
2023-01-18T11:00:11.357Z,829.06
2023-01-18T11:01:11.449Z,828.99
2023-01-18T11:02:11.505Z,829.02
2023-01-18T11:03:11.335Z,829.02
2023-01-18T11:04:11.301Z,829.06
2023-01-18T11:05:11.336Z,829.03
2023-01-18T11:06:11.291Z,829.01
2023-01-18T11:07:11.281Z,829.02
2023-01-18T11:08:11.267Z,829.03
2023-01-18T11:09:11.244Z,829.07
2023-01-18T11:10:11.233Z,829.05
2023-01-18T11:11:11.296Z,829.04
2023-01-18T11:12:11.223Z,829.02
2023-01-18T11:13:11.198Z,829.07
2023-01-18T11:14:11.192Z,829.06
2023-01-18T11:15:11.175Z,829.03
2023-01-18T11:16:11.173Z,829.02
2023-01-18T11:17:11.227Z,829.02
2023-01-18T11:18:11.144Z,829.16
2023-01-18T11:19:11.133Z,829.13
2023-01-18T11:20:11.127Z,829.09
2023-01-18T11:21:11.108Z,829.07
2023-01-18T11:22:11.102Z,829.09
2023-01-18T11:23:11.146Z,829.06
2023-01-18T11:24:11.081Z,829.04
2023-01-18T11:25:11.062Z,829.07
2023-01-18T11:26:11.057Z,829.11
2023-01-18T11:27:11.101Z,829.08
2023-01-18T11:28:11.056Z,829.06
2023-01-18T11:29:11.078Z,829.09
2023-01-18T11:30:11.016Z,829.15
2023-01-18T11:31:11.002Z,829.11
2023-01-18T11:32:11.077Z,829.07
2023-01-18T11:33:10.994Z,829.08
2023-01-18T11:34:10.972Z,829.04
2023-01-18T11:35:10.961Z,829.00
2023-01-18T11:36:10.983Z,828.97
2023-01-18T11:37:10.967Z,828.99
2023-01-18T11:38:10.932Z,829.01
2023-01-18T11:39:10.914Z,829.01
2023-01-18T11:40:10.906Z,829.01
2023-01-18T11:41:10.913Z,828.98
2023-01-18T11:42:10.938Z,828.97
2023-01-18T11:43:10.887Z,828.96
2023-01-18T11:44:10.861Z,828.93
2023-01-18T11:45:10.846Z,828.93
2023-01-18T11:46:10.902Z,828.93
2023-01-18T11:47:10.840Z,828.93
2023-01-18T11:48:10.877Z,828.91
2023-01-18T11:49:10.803Z,828.88
2023-01-18T11:50:21.624Z,828.92
2023-01-18T11:51:11.790Z,828.93
2023-01-18T11:52:10.875Z,828.93
2023-01-18T11:53:10.777Z,828.94
2023-01-18T11:54:10.788Z,828.92
2023-01-18T11:55:10.736Z,828.91
2023-01-18T11:56:10.720Z,828.93
2023-01-18T11:57:10.711Z,828.86
2023-01-18T11:58:10.712Z,828.87
2023-01-18T11:59:10.806Z,828.84
2023-01-18T12:00:10.703Z,828.82
2023-01-18T12:01:10.745Z,828.85
2023-01-18T12:02:10.713Z,828.80
2023-01-18T12:03:10.738Z,828.85
2023-01-18T12:04:10.638Z,828.84
2023-01-18T12:05:10.624Z,828.83
2023-01-18T12:06:10.646Z,828.84
2023-01-18T12:07:10.604Z,828.83
2023-01-18T12:08:10.694Z,828.82
2023-01-18T12:09:10.670Z,828.83
2023-01-18T12:10:10.596Z,828.83
2023-01-18T12:11:10.593Z,828.77
2023-01-18T12:12:19.082Z,828.79
2023-01-18T12:13:11.555Z,828.79
2023-01-18T12:14:10.527Z,828.77
2023-01-18T12:15:10.562Z,828.79
2023-01-18T12:16:10.636Z,828.86
2023-01-18T12:17:10.496Z,828.84
2023-01-18T12:18:14.088Z,828.82
2023-01-18T12:19:10.495Z,828.81
2023-01-18T12:20:10.457Z,828.86
2023-01-18T12:21:10.456Z,828.87
2023-01-18T12:22:10.436Z,828.83
2023-01-18T12:23:10.429Z,828.92
2023-01-18T12:24:10.446Z,828.93
2023-01-18T12:25:10.434Z,828.93
2023-01-18T12:26:12.627Z,829.02
2023-01-18T12:27:10.402Z,829.00
2023-01-18T12:28:10.376Z,829.02